Time;durP1;ratioP1;P1;durP2;ratioP2;P2;SDS_P1;SDS_P2;PMS_P1;PMS_P2;Temp;Humidity;BMP_temperature;BMP_pressure;BME280_temperature;BME280_humidity;BME280_pressure;Samples;Min_cycle;Max_cycle;Signal;HPM_P1;HPM_P2
2023/05/31 00:02:20;;;;;;;13.60;6.50;;;;;;;12.62;55.13;101225.71;109769;1269;22082;-86
2023/05/31 00:05:10;;;;;;;13.00;6.30;;;;;;;12.62;54.68;101225.71;110099;1265;22466;-87
2023/05/31 00:07:48;;;;;;;12.40;6.30;;;;;;;12.59;54.32;101220.06;110264;1265;22023;-86
2023/05/31 00:10:42;;;;;;;12.70;6.40;;;;;;;12.60;54.04;101221.92;110403;1265;21971;-87
2023/05/31 00:13:20;;;;;;;9.40;6.60;;;;;;;12.63;53.85;101228.46;110424;1265;22713;-85
2023/05/31 00:15:53;;;;;;;13.40;7.00;;;;;;;12.63;53.63;101230.04;110503;1265;22024;-84
2023/05/31 00:18:26;;;;;;;9.80;6.80;;;;;;;12.63;53.52;101231.78;109614;1271;22442;-85
2023/05/31 00:21:09;;;;;;;11.60;6.60;;;;;;;12.64;53.49;101230.20;109648;1271;21979;-83
2023/05/31 00:23:48;;;;;;;14.70;7.50;;;;;;;12.63;53.31;101229.33;109600;1271;21975;-82
2023/05/31 00:26:29;;;;;;;12.30;7.20;;;;;;;12.61;53.20;101232.73;109641;1271;22041;-83
2023/05/31 00:29:44;;;;;;;11.70;7.20;;;;;;;12.55;53.16;101231.17;109511;1271;21990;-84
2023/05/31 00:32:35;;;;;;;14.00;8.00;;;;;;;12.51;53.16;101233.73;109739;1271;22001;-83
2023/05/31 00:35:24;;;;;;;13.70;7.30;;;;;;;12.48;53.13;101244.85;109497;1273;22080;-84
2023/05/31 00:37:58;;;;;;;13.50;8.80;;;;;;;12.48;53.28;101244.84;110108;1267;21970;-84
2023/05/31 00:40:47;;;;;;;14.00;7.60;;;;;;;12.48;53.26;101241.17;109723;1270;22021;-86
2023/05/31 00:43:34;;;;;;;11.80;7.20;;;;;;;12.50;53.38;101238.64;109802;1270;21976;-87
2023/05/31 00:46:46;;;;;;;13.80;8.00;;;;;;;12.50;53.38;101243.36;109717;1270;21977;-86
2023/05/31 00:49:37;;;;;;;12.40;8.10;;;;;;;12.48;53.35;101245.69;109636;1270;22073;-84
2023/05/31 00:52:33;;;;;;;15.50;9.20;;;;;;;12.49;53.47;101243.59;109670;1270;21963;-86
2023/05/31 00:55:28;;;;;;;16.00;9.30;;;;;;;12.49;53.44;101242.36;109562;1268;23599;-85
2023/05/31 00:58:11;;;;;;;12.40;8.90;;;;;;;12.48;53.38;101244.50;109917;1267;21958;-85
2023/05/31 01:00:43;;;;;;;15.10;10.00;;;;;;;12.45;53.31;101238.83;110085;1267;23743;-86
2023/05/31 01:03:16;;;;;;;14.60;10.00;;;;;;;12.43;53.30;101245.54;110442;1267;22813;-85
2023/05/31 01:05:49;;;;;;;14.70;10.50;;;;;;;12.38;53.47;101244.45;109910;1267;22764;-86
2023/05/31 01:08:31;;;;;;;15.10;9.40;;;;;;;12.35;53.38;101251.17;110069;1267;23744;-87
2023/05/31 01:11:40;;;;;;;17.30;12.10;;;;;;;12.29;53.72;101252.05;109972;1267;22016;-84
2023/05/31 01:15:02;;;;;;;19.90;12.30;;;;;;;12.24;53.82;101249.93;110076;1267;23035;-86
2023/05/31 01:17:55;;;;;;;17.60;13.00;;;;;;;12.19;53.80;101250.96;110931;1260;23011;-87
2023/05/31 01:20:49;;;;;;;16.90;12.30;;;;;;;12.16;54.13;101250.88;111070;1260;22536;-87
2023/05/31 01:24:07;;;;;;;16.20;13.20;;;;;;;12.15;54.30;101250.56;111035;1260;22207;-84
2023/05/31 01:26:50;;;;;;;17.00;12.80;;;;;;;12.10;54.29;101250.54;110901;1264;23700;-86
2023/05/31 01:29:39;;;;;;;26.70;14.50;;;;;;;12.03;54.45;101252.11;110825;1264;22444;-84
2023/05/31 01:32:24;;;;;;;26.50;16.90;;;;;;;12.00;54.66;101252.92;110519;1264;23706;-85
2023/05/31 01:35:43;;;;;;;26.20;18.40;;;;;;;11.95;54.72;101250.80;109848;1271;23035;-83
2023/05/31 01:38:16;;;;;;;26.80;18.90;;;;;;;11.89;54.93;101250.24;109456;1275;23159;-84
2023/05/31 01:40:58;;;;;;;21.50;15.50;;;;;;;11.89;55.13;101254.27;109243;1275;21978;-83
2023/05/31 01:43:52;;;;;;;21.40;16.00;;;;;;;11.88;55.00;101257.61;109327;1275;21977;-86
2023/05/31 01:46:38;;;;;;;22.50;12.30;;;;;;;11.84;55.12;101254.92;109392;1275;22370;-85
2023/05/31 01:49:40;;;;;;;18.30;10.90;;;;;;;11.82;55.37;101253.23;109438;1275;22000;-84
2023/05/31 01:52:57;;;;;;;17.50;9.40;;;;;;;11.77;55.40;101248.16;109514;1271;22024;-85
2023/05/31 01:55:43;;;;;;;13.80;8.00;;;;;;;11.73;55.69;101248.08;109237;1276;21990;-86
2023/05/31 01:58:16;;;;;;;15.80;7.80;;;;;;;11.71;55.76;101249.36;109203;1276;23067;-85
2023/05/31 02:00:51;;;;;;;12.30;7.90;;;;;;;11.68;56.08;101250.83;109203;1276;22074;-86
2023/05/31 02:03:54;;;;;;;;;;;;;;;;;;;;;
2023/05/31 02:06:42;;;;;;;13.40;8.30;;;;;;;11.54;56.44;101256.27;109491;1273;21994;-87
2023/05/31 02:09:32;;;;;;;13.80;7.00;;;;;;;11.48;56.52;101255.75;109634;1273;21966;-87
2023/05/31 02:12:11;;;;;;;9.20;6.60;;;;;;;11.41;56.50;101258.20;109655;1271;22001;-87
2023/05/31 02:14:43;;;;;;;11.20;7.60;;;;;;;11.36;56.86;101258.67;109990;1260;22018;-85
2023/05/31 02:17:18;;;;;;;12.30;6.80;;;;;;;11.31;57.01;101261.78;111041;1260;21980;-86
2023/05/31 02:19:58;;;;;;;14.20;6.70;;;;;;;11.25;56.98;101260.19;108826;1256;2471427;-85
2023/05/31 02:22:31;;;;;;;13.60;7.30;;;;;;;11.23;57.46;101260.77;110846;1260;21996;-84
2023/05/31 02:25:01;;;;;;;11.70;6.90;;;;;;;11.18;57.60;101262.98;111055;1260;21961;-84
2023/05/31 02:27:31;;;;;;;14.40;6.30;;;;;;;11.16;57.70;101266.87;110627;1266;23087;-85
2023/05/31 02:30:06;;;;;;;10.60;6.00;;;;;;;11.13;57.84;101265.54;110393;1266;23030;-87
2023/05/31 02:32:55;;;;;;;11.80;6.20;;;;;;;11.11;58.15;101262.46;110276;1266;23596;-84
2023/05/31 02:35:26;;;;;;;11.30;5.90;;;;;;;11.10;58.34;101265.98;110450;1266;21970;-87
2023/05/31 02:37:56;;;;;;;8.50;5.70;;;;;;;11.08;58.25;101263.94;110269;1266;21953;-86
2023/05/31 02:40:26;;;;;;;10.00;6.10;;;;;;;11.05;58.30;101259.30;110228;1266;22124;-85
2023/05/31 02:43:02;;;;;;;15.60;5.70;;;;;;;11.01;58.41;101264.46;110380;1265;22462;-83
2023/05/31 02:45:42;;;;;;;7.90;5.80;;;;;;;10.96;58.63;101260.94;110423;1260;23706;-84
2023/05/31 02:48:20;;;;;;;9.90;5.90;;;;;;;10.93;58.78;101259.96;110822;1260;21961;-83
2023/05/31 02:51:00;;;;;;;11.10;6.10;;;;;;;10.90;58.83;101259.69;110834;1260;23071;-84
2023/05/31 02:53:50;;;;;;;11.90;6.20;;;;;;;10.87;58.97;101260.44;111012;1260;21982;-81
2023/05/31 02:56:26;;;;;;;8.40;5.80;;;;;;;10.86;58.96;101258.91;110663;1259;21972;-83
2023/05/31 02:59:21;;;;;;;11.70;5.80;;;;;;;10.83;59.00;101257.58;110402;1265;21976;-80
2023/05/31 03:02:00;;;;;;;14.00;5.80;;;;;;;10.81;59.23;101253.98;110435;1264;21973;-83
2023/05/31 03:04:44;;;;;;;9.70;6.10;;;;;;;10.83;59.47;101254.46;110426;1265;21939;-85
2023/05/31 03:07:17;;;;;;;11.70;6.60;;;;;;;10.83;59.48;101257.06;110770;1265;22062;-86
2023/05/31 03:10:10;;;;;;;;;;;;;;;;;;;;;
2023/05/31 03:13:33;;;;;;;12.20;5.70;;;;;;;10.86;59.86;101260.48;110573;1265;21950;-85
2023/05/31 03:16:50;;;;;;;10.30;5.40;;;;;;;10.88;60.03;101261.66;110713;1265;22245;-84
2023/05/31 03:19:24;;;;;;;15.20;6.00;;;;;;;10.94;59.78;101264.80;110659;1265;21977;-83
2023/05/31 03:21:58;;;;;;;16.60;6.20;;;;;;;10.99;59.85;101267.11;110755;1260;21961;-82
2023/05/31 03:24:31;;;;;;;12.10;5.40;;;;;;;11.05;59.91;101269.92;110868;1260;21957;-82
2023/05/31 03:27:07;;;;;;;13.70;5.80;;;;;;;11.10;59.96;101264.59;110655;1260;21979;-82
2023/05/31 03:29:42;;;;;;;15.30;5.90;;;;;;;11.13;59.88;101262.06;110730;1259;22113;-83
2023/05/31 03:32:14;;;;;;;10.80;5.90;;;;;;;11.17;60.01;101257.97;110888;1260;21972;-82
2023/05/31 03:34:44;;;;;;;16.80;6.90;;;;;;;11.21;60.03;101259.95;111016;1260;21966;-83
2023/05/31 03:37:26;;;;;;;21.10;7.10;;;;;;;11.25;60.01;101262.45;110967;1260;22074;-85
2023/05/31 03:40:20;;;;;;;12.90;6.10;;;;;;;11.28;60.09;101262.88;110392;1264;22053;-84
2023/05/31 03:43:17;;;;;;;15.10;7.10;;;;;;;11.30;60.08;101261.80;110707;1264;23055;-84
2023/05/31 03:46:00;;;;;;;10.70;7.50;;;;;;;11.35;59.97;101269.17;110612;1264;21998;-82
2023/05/31 03:48:31;;;;;;;24.00;8.50;;;;;;;11.38;59.88;101267.69;110027;1266;22000;-80
2023/05/31 03:51:15;;;;;;;31.60;7.90;;;;;;;11.44;59.85;101265.79;110059;1268;23799;-83
2023/05/31 03:54:21;;;;;;;9.60;6.90;;;;;;;11.49;59.94;101268.80;109869;1268;23806;-82
2023/05/31 03:56:59;;;;;;;8.90;6.50;;;;;;;11.57;59.69;101269.09;109987;1268;21981;-81
2023/05/31 03:59:46;;;;;;;10.40;7.30;;;;;;;11.66;59.61;101272.84;110475;1264;23590;-81
2023/05/31 04:02:23;;;;;;;14.10;7.30;;;;;;;11.77;59.56;101274.63;110602;1264;24151;-80
2023/05/31 04:05:06;;;;;;;14.20;6.60;;;;;;;11.88;59.43;101275.57;110664;1264;22722;-81
2023/05/31 04:07:50;;;;;;;19.00;6.60;;;;;;;12.00;59.19;101277.15;111044;1260;21982;-83
2023/05/31 04:10:51;;;;;;;12.40;6.30;;;;;;;12.12;58.98;101277.36;111006;1260;22037;-85
2023/05/31 04:13:30;;;;;;;13.50;7.30;;;;;;;12.24;58.67;101272.98;111035;1256;21966;-84
2023/05/31 04:16:44;;;;;;;14.90;6.90;;;;;;;12.38;58.43;101275.02;111048;1259;21972;-85
2023/05/31 04:19:49;;;;;;;14.90;7.50;;;;;;;12.50;58.14;101274.80;110837;1259;21972;-84
2023/05/31 04:22:52;;;;;;;13.90;6.80;;;;;;;12.68;58.15;101271.80;110888;1259;24123;-84
2023/05/31 04:25:46;;;;;;;16.40;6.10;;;;;;;12.92;57.92;101275.23;111026;1259;21963;-84
2023/05/31 04:28:21;;;;;;;15.30;6.70;;;;;;;13.14;57.56;101265.73;111016;1259;21979;-85
2023/05/31 04:31:20;;;;;;;;;;;;;;;;;;;;;
2023/05/31 04:35:20;;;;;;;;;;;;;;;;;;;;;
2023/05/31 04:39:12;;;;;;;14.60;7.00;;;;;;;14.39;56.27;101275.23;109421;1275;21982;-85
2023/05/31 04:42:41;;;;;;;;;;;;;;;;;;;;;
2023/05/31 04:46:00;;;;;;;14.40;7.70;;;;;;;15.89;54.28;101276.88;109341;1276;21989;-85
2023/05/31 04:49:35;;;;;;;;;;;;;;;;;;;;;
2023/05/31 04:53:08;;;;;;;12.00;6.70;;;;;;;17.42;50.77;101278.33;108865;1283;23055;-83
2023/05/31 04:56:39;;;;;;;10.20;5.00;;;;;;;18.03;47.31;101277.39;108032;1293;544715;-84
2023/05/31 04:59:49;;;;;;;11.10;5.00;;;;;;;18.37;46.35;101276.23;110199;1269;21972;-85
2023/05/31 05:03:18;;;;;;;9.70;4.70;;;;;;;18.88;45.19;101271.10;111196;1257;21955;-81
2023/05/31 05:06:21;;;;;;;9.70;4.70;;;;;;;19.13;43.81;101270.53;111107;1257;21959;-81
2023/05/31 05:10:18;;;;;;;14.50;4.70;;;;;;;19.34;43.20;101268.77;107115;1259;5043375;-81
2023/05/31 05:13:55;;;;;;;11.90;4.80;;;;;;;19.63;42.51;101269.64;110538;1265;22256;-80
2023/05/31 05:17:16;;;;;;;15.40;4.20;;;;;;;19.94;41.96;101269.88;110592;1265;21988;-78
2023/05/31 05:20:15;;;;;;;7.10;3.90;;;;;;;20.07;41.09;101268.52;110420;1265;21969;-80
2023/05/31 05:23:42;;;;;;;8.70;5.10;;;;;;;20.36;40.73;101266.52;110429;1265;21984;-81
2023/05/31 05:27:03;;;;;;;13.70;4.30;;;;;;;20.65;40.00;101267.66;110525;1262;22051;-80
2023/05/31 05:30:43;;;;;;;13.30;4.70;;;;;;;20.85;39.45;101266.55;110059;1263;23071;-81
2023/05/31 05:33:52;;;;;;;8.00;4.90;;;;;;;21.23;39.82;101266.61;110676;1264;23618;-80
2023/05/31 05:37:35;;;;;;;12.60;4.20;;;;;;;21.80;38.50;101265.36;109858;1271;21976;-81
2023/05/31 05:40:57;;;;;;;7.40;3.90;;;;;;;21.95;36.93;101264.50;109564;1271;23833;-80
2023/05/31 05:43:59;;;;;;;;;;;;;;;;;;;;;
2023/05/31 05:46:56;;;;;;;8.30;3.50;;;;;;;22.23;37.02;101267.14;110370;1265;21970;-79
2023/05/31 05:50:05;;;;;;;8.50;3.80;;;;;;;22.41;36.40;101267.41;110690;1261;23707;-81
2023/05/31 05:53:39;;;;;;;7.00;4.10;;;;;;;22.49;35.97;101269.52;110693;1261;22286;-80
2023/05/31 05:57:41;;;;;;;8.40;3.60;;;;;;;22.65;36.10;101272.08;111313;1254;22979;-81
2023/05/31 06:01:14;;;;;;;;;;;;;;;;;;;;;
2023/05/31 06:04:43;;;;;;;9.00;3.50;;;;;;;22.71;35.14;101270.72;110780;1261;21960;-80
2023/05/31 06:08:00;;;;;;;10.60;4.50;;;;;;;22.69;34.85;101274.25;110617;1261;22025;-82
2023/05/31 06:11:19;;;;;;;6.20;3.40;;;;;;;22.70;34.80;101279.51;110596;1261;23647;-81
2023/05/31 06:15:03;;;;;;;9.10;3.80;;;;;;;22.70;35.16;101283.24;110621;1261;21965;-80
2023/05/31 06:18:34;;;;;;;;;;;;;;;;;;;;;
2023/05/31 06:22:19;;;;;;;11.10;3.60;;;;;;;22.65;34.38;101279.15;110684;1260;21986;-78
2023/05/31 06:29:58;;;;;;;;;;;;;;;;;;;;;
2023/05/31 06:33:48;;;;;;;9.50;4.90;;;;;;;23.12;34.37;101277.98;109706;1268;23731;-78
2023/05/31 06:36:54;;;;;;;9.70;5.00;;;;;;;23.45;34.40;101277.55;109515;1271;21978;-79
2023/05/31 06:41:09;;;;;;;;;;;;;;;;;;;;;
2023/05/31 06:44:48;;;;;;;9.70;5.90;;;;;;;24.20;33.08;101269.33;109125;1276;22038;-80
2023/05/31 06:48:26;;;;;;;9.30;4.40;;;;;;;24.53;32.74;101267.20;109272;1276;21999;-79
2023/05/31 06:51:52;;;;;;;12.20;4.50;;;;;;;24.73;31.60;101262.53;109300;1276;21992;-82
2023/05/31 06:55:51;;;;;;;13.60;4.60;;;;;;;24.72;31.95;101254.79;109185;1273;22083;-79
2023/05/31 06:58:40;;;;;;;7.80;3.80;;;;;;;24.88;31.30;101257.00;109504;1268;22466;-81
2023/05/31 07:01:57;;;;;;;9.10;4.40;;;;;;;24.95;31.12;101257.33;110661;1259;21972;-80
2023/05/31 07:06:19;;;;;;;9.00;3.90;;;;;;;25.11;31.38;101254.23;110453;1267;21969;-80
2023/05/31 07:09:19;;;;;;;10.20;4.10;;;;;;;25.48;30.68;101252.66;110278;1267;21993;-79
2023/05/31 07:12:06;;;;;;;;;;;;;;;25.77;30.34;101254.42;110157;1267;23579;-78
2023/05/31 07:15:09;;;;;;;6.00;3.40;;;;;;;25.97;29.70;101251.11;109420;1270;21987;-79
2023/05/31 07:18:51;;;;;;;8.80;3.80;;;;;;;26.08;29.83;101244.80;109346;1269;21979;-78
2023/05/31 07:23:08;;;;;;;11.80;4.20;;;;;;;26.51;28.78;101241.80;108545;1284;22011;-78
2023/05/31 07:29:36;;;;;;;;;;;;;;;;;;;;;
2023/05/31 07:33:08;;;;;;;6.90;3.40;;;;;;;26.60;28.98;101233.88;108858;1279;21987;-80
2023/05/31 07:36:44;;;;;;;8.50;3.00;;;;;;;26.86;28.93;101238.80;108982;1281;22096;-81
2023/05/31 07:39:33;;;;;;;7.00;3.20;;;;;;;27.04;28.40;101239.90;109090;1273;21984;-81
2023/05/31 07:42:57;;;;;;;7.90;2.60;;;;;;;27.08;27.92;101238.29;109346;1276;22005;-81
2023/05/31 07:46:17;;;;;;;8.90;3.10;;;;;;;26.94;27.23;101232.33;108917;1280;21946;-80
2023/05/31 07:49:09;;;;;;;12.10;3.20;;;;;;;26.98;27.48;101228.91;109007;1276;22738;-81
2023/05/31 07:52:09;;;;;;;5.70;2.60;;;;;;;27.15;27.20;101224.63;108943;1280;21994;-79
2023/05/31 07:55:32;;;;;;;7.60;2.70;;;;;;;27.41;27.16;101228.23;109208;1275;23053;-79
2023/05/31 07:58:36;;;;;;;4.80;2.90;;;;;;;27.73;27.13;101224.01;109231;1278;22006;-79
2023/05/31 08:02:02;;;;;;;10.30;3.20;;;;;;;27.89;26.10;101220.09;109268;1274;21982;-80
2023/05/31 08:05:14;;;;;;;;;;;;;;;;;;;;;
2023/05/31 08:09:02;;;;;;;5.00;1.90;;;;;;;28.06;26.04;101226.16;109219;1278;22154;-81
2023/05/31 08:12:49;;;;;;;5.70;2.20;;;;;;;28.16;25.51;101218.73;108879;1276;22339;-80
2023/05/31 08:20:38;;;;;;;7.40;2.20;;;;;;;28.23;24.49;101212.59;108588;1285;23652;-80
2023/05/31 08:27:05;;;;;;;8.20;2.60;;;;;;;28.35;24.41;101211.08;108187;1286;21998;-81
2023/05/31 08:29:59;;;;;;;5.60;2.00;;;;;;;28.21;24.55;101214.69;108571;1286;21990;-79
2023/05/31 08:32:38;;;;;;;6.30;3.00;;;;;;;28.13;24.87;101215.98;108509;1286;22008;-80
2023/05/31 08:35:41;;;;;;;;;;;;;;;;;;;;;
2023/05/31 08:38:44;;;;;;;9.30;2.20;;;;;;;28.08;24.77;101215.20;108626;1284;23789;-80
2023/05/31 08:42:35;;;;;;;15.50;2.20;;;;;;;28.24;24.60;101211.50;108738;1284;22022;-78
2023/05/31 08:45:39;;;;;;;3.10;1.20;;;;;;;28.34;24.31;101210.49;108480;1289;21996;-80
2023/05/31 08:48:37;;;;;;;5.90;2.10;;;;;;;28.41;23.97;101211.09;108407;1286;22765;-81
2023/05/31 08:51:31;;;;;;;7.30;2.30;;;;;;;28.44;24.00;101208.13;108257;1287;22006;-80
2023/05/31 08:54:42;;;;;;;;;;;;;;;;;;;;;
2023/05/31 08:57:30;;;;;;;8.70;1.90;;;;;;;28.52;23.59;101207.29;108967;1275;21974;-80
2023/05/31 09:01:00;;;;;;;4.00;1.90;;;;;;;28.58;23.65;101208.98;109203;1278;21984;-82
2023/05/31 09:04:28;;;;;;;;;;;;;;;;;;;;;
2023/05/31 09:07:20;;;;;;;7.80;2.20;;;;;;;28.83;23.66;101202.00;109210;1270;21991;-81
2023/05/31 09:10:06;;;;;;;7.20;2.00;;;;;;;28.93;23.27;101198.83;108847;1282;22018;-82
2023/05/31 09:13:12;;;;;;;;;;;;;;;;;;;;;
2023/05/31 09:16:43;;;;;;;;;;;;;;;;;;;;;
2023/05/31 09:19:46;;;;;;;5.60;2.20;;;;;;;28.92;23.00;101193.96;108706;1285;23711;-81
2023/05/31 09:23:07;;;;;;;10.40;2.50;;;;;;;29.01;23.22;101194.65;109257;1274;21962;-78
2023/05/31 09:26:16;;;;;;;6.50;2.40;;;;;;;29.24;23.14;101193.58;109209;1274;24320;-78
2023/05/31 09:29:27;;;;;;;;;;;;;;;;;;;;;
2023/05/31 09:32:35;;;;;;;;;;;;;;;;;;;;;
2023/05/31 09:36:04;;;;;;;8.00;2.10;;;;;;;29.76;22.67;101192.82;110589;1262;23624;-82
2023/05/31 09:39:42;;;;;;;;;;;;;;;;;;;;;
2023/05/31 09:43:06;;;;;;;4.80;2.30;;;;;;;29.53;21.94;101183.36;110782;1256;23641;-80
2023/05/31 09:46:15;;;;;;;;;;;;;;;29.27;22.04;101176.18;111326;1256;21955;-80
2023/05/31 09:49:12;;;;;;;5.00;2.00;;;;;;;28.85;22.27;101178.67;111247;1255;21950;-80
2023/05/31 09:52:37;;;;;;;6.80;1.50;;;;;;;28.60;22.56;101177.64;110881;1260;23720;-81
2023/05/31 09:56:00;;;;;;;5.70;1.80;;;;;;;28.30;22.69;101179.98;110791;1261;24306;-82
2023/05/31 09:58:50;;;;;;;7.00;2.30;;;;;;;28.17;23.17;101177.14;110421;1261;21990;-83
2023/05/31 10:01:59;;;;;;;4.30;2.20;;;;;;;28.16;23.31;101173.64;109981;1267;24452;-80
2023/05/31 10:05:28;;;;;;;;;;;;;;;;;;;;;
2023/05/31 10:08:31;;;;;;;4.70;2.20;;;;;;;27.98;23.51;101158.23;109842;1269;21983;-80
2023/05/31 10:11:35;;;;;;;6.20;2.10;;;;;;;27.96;23.48;101150.98;109713;1271;22786;-79
2023/05/31 10:14:42;;;;;;;;;;;;;;;;;;;;;
2023/05/31 10:17:38;;;;;;;;;;;;;;;;;;;;;
2023/05/31 10:21:28;;;;;;;3.70;1.70;;;;;;;27.80;23.48;101149.46;109363;1271;22661;-79
2023/05/31 10:24:44;;;;;;;6.30;1.70;;;;;;;27.64;23.56;101153.71;108881;1278;21975;-79
2023/05/31 10:28:16;;;;;;;9.10;2.80;;;;;;;27.46;23.74;101143.98;109006;1275;21983;-79
2023/05/31 10:31:59;;;;;;;11.00;3.40;;;;;;;27.44;23.86;101143.60;109315;1272;24477;-83
2023/05/31 10:35:20;;;;;;;;;;;;;;;27.14;23.90;101134.33;108699;1285;23102;-78
2023/05/31 10:38:42;;;;;;;;;;;;;;;;;;;;;
2023/05/31 10:42:08;;;;;;;7.20;2.80;;;;;;;26.62;24.58;101132.45;108835;1275;22029;-83
2023/05/31 10:45:37;;;;;;;9.10;2.30;;;;;;;26.27;25.64;101135.16;109281;1275;23646;-81
2023/05/31 10:48:59;;;;;;;5.50;1.90;;;;;;;25.95;25.50;101128.73;109343;1275;23638;-80
2023/05/31 10:51:49;;;;;;;6.20;2.00;;;;;;;25.59;25.67;101122.36;109517;1272;21995;-80
2023/05/31 10:54:40;;;;;;;6.60;2.30;;;;;;;25.46;26.11;101124.55;109550;1271;21984;-79
2023/05/31 10:57:50;;;;;;;6.70;2.00;;;;;;;25.34;26.42;101121.33;109100;1278;22288;-81
2023/05/31 11:00:53;;;;;;;3.60;1.80;;;;;;;25.19;26.78;101124.09;109279;1270;22070;-81
2023/05/31 11:04:24;;;;;;;14.10;2.20;;;;;;;24.94;27.46;101124.45;109463;1268;22024;-82
2023/05/31 11:07:28;;;;;;;6.10;1.80;;;;;;;24.78;27.15;101124.40;109895;1268;23631;-81
2023/05/31 11:10:37;;;;;;;5.30;2.40;;;;;;;24.57;27.67;101119.08;109950;1270;21982;-81
2023/05/31 11:14:10;;;;;;;;;;;;;;;;;;;;;
2023/05/31 11:17:03;;;;;;;6.50;2.50;;;;;;;24.40;28.71;101110.12;110172;1266;21981;-82
2023/05/31 11:20:07;;;;;;;;;;;;;;;;;;;;;
2023/05/31 11:23:30;;;;;;;6.80;2.20;;;;;;;24.31;28.47;101092.95;110453;1265;21952;-85
2023/05/31 11:26:59;;;;;;;6.80;2.40;;;;;;;24.26;28.65;101087.83;110253;1265;22023;-86
2023/05/31 11:30:04;;;;;;;4.80;2.10;;;;;;;24.10;28.37;101085.75;110511;1265;21972;-90
2023/05/31 11:34:02;;;;;;;;;;;;;;;;;;;;;
2023/05/31 11:37:52;;;;;;;;;;;;;;;;;;;;;
2023/05/31 11:41:30;;;;;;;13.70;2.20;;;;;;;23.99;28.52;101078.38;109593;1275;22638;-89
2023/05/31 11:44:54;;;;;;;6.40;2.30;;;;;;;24.02;28.53;101075.94;109502;1275;21984;-89
2023/05/31 11:48:21;;;;;;;5.10;1.90;;;;;;;23.98;27.97;101074.50;109300;1281;22635;-88
2023/05/31 11:51:09;;;;;;;3.90;1.70;;;;;;;23.91;27.71;101066.36;109224;1281;22001;-89
2023/05/31 11:53:44;;;;;;;4.40;1.70;;;;;;;23.92;27.70;101062.60;109000;1278;21991;-86
2023/05/31 11:56:36;;;;;;;7.50;2.70;;;;;;;23.98;27.84;101058.39;109053;1281;23738;-86
2023/05/31 11:59:24;;;;;;;;;;;;;;;;;;;;;
2023/05/31 12:02:07;;;;;;;4.80;1.70;;;;;;;24.13;27.89;101058.71;109364;1278;22194;-88
2023/05/31 12:04:43;;;;;;;3.50;2.10;;;;;;;24.06;27.27;101057.15;109168;1278;21982;-89
2023/05/31 12:07:20;;;;;;;8.70;2.00;;;;;;;23.92;27.26;101056.02;109823;1265;22873;-91
2023/05/31 12:09:59;;;;;;;6.00;1.80;;;;;;;23.85;27.49;101058.55;110381;1265;23682;-89
2023/05/31 12:12:47;;;;;;;3.30;1.70;;;;;;;23.86;27.77;101060.09;110332;1262;22985;-89
2023/05/31 12:15:26;;;;;;;4.10;2.30;;;;;;;23.91;28.01;101060.15;110282;1265;23065;-90
2023/05/31 12:18:11;;;;;;;8.30;2.50;;;;;;;23.95;27.48;101059.88;110380;1265;21970;-89
2023/05/31 12:20:51;;;;;;;4.60;2.10;;;;;;;23.95;27.66;101055.77;110441;1265;21969;-89
2023/05/31 12:24:15;;;;;;;6.00;2.40;;;;;;;24.02;27.63;101055.92;110376;1265;21976;-88
2023/05/31 12:27:08;;;;;;;4.10;2.10;;;;;;;23.96;27.04;101048.77;110895;1263;21972;-89
2023/05/31 12:29:55;;;;;;;4.90;1.90;;;;;;;23.87;26.79;101040.80;111018;1262;23027;-87
2023/05/31 12:32:48;;;;;;;4.80;1.60;;;;;;;23.87;27.26;101037.02;110574;1263;21975;-90
2023/05/31 12:35:46;;;;;;;7.10;2.20;;;;;;;23.98;27.81;101035.23;110794;1257;22002;-88
2023/05/31 12:38:34;;;;;;;4.50;2.30;;;;;;;24.11;28.00;101031.64;110746;1263;22177;-90
2023/05/31 12:41:12;;;;;;;7.60;2.60;;;;;;;24.22;27.80;101030.77;110819;1263;22012;-88
2023/05/31 12:43:51;;;;;;;8.90;4.60;;;;;;;24.32;27.41;101026.86;110312;1261;22205;-89
2023/05/31 12:46:46;;;;;;;4.70;2.20;;;;;;;24.33;27.01;101022.36;110403;1267;23008;-89
2023/05/31 12:49:34;;;;;;;8.70;4.10;;;;;;;24.18;26.84;101013.45;110490;1267;23829;-89
2023/05/31 12:52:20;;;;;;;5.30;2.60;;;;;;;24.12;27.02;101008.30;110645;1261;22001;-87
2023/05/31 12:55:15;;;;;;;4.50;2.10;;;;;;;24.19;27.09;101008.63;110982;1259;21953;-88
2023/05/31 12:57:55;;;;;;;10.40;2.80;;;;;;;24.28;27.27;101007.08;111036;1260;21960;-87
2023/05/31 13:00:44;;;;;;;11.90;2.10;;;;;;;24.34;27.12;100999.61;110777;1259;22423;-87
2023/05/31 13:03:32;;;;;;;;;;;;;;;;;;;;;
2023/05/31 13:06:22;;;;;;;;;;;;;;;;;;;;;
2023/05/31 13:09:06;;;;;;;6.40;2.10;;;;;;;24.37;27.06;100989.63;111445;1256;23691;-88
2023/05/31 13:11:51;;;;;;;7.60;2.00;;;;;;;24.39;27.40;100985.02;111839;1245;22963;-89
2023/05/31 13:14:28;;;;;;;4.80;2.70;;;;;;;24.42;27.47;100980.13;111654;1263;21974;-90
2023/05/31 13:17:11;;;;;;;7.90;3.70;;;;;;;24.48;27.68;100981.05;110548;1267;23030;-91
2023/05/31 13:19:58;;;;;;;8.70;2.40;;;;;;;24.52;27.59;100979.49;110413;1263;21996;-86
2023/05/31 13:23:02;;;;;;;2.70;1.60;;;;;;;24.55;27.06;100978.45;110422;1268;22015;-82
2023/05/31 13:28:29;;;;;;;4.60;1.60;;;;;;;24.57;26.90;100973.90;109284;1276;21993;-78
2023/05/31 13:31:01;;;;;;;4.30;1.70;;;;;;;24.61;27.14;100972.98;109175;1276;23737;-80
2023/05/31 13:33:47;;;;;;;6.60;2.00;;;;;;;24.70;27.08;100967.05;109278;1270;22921;-79
2023/05/31 13:36:28;;;;;;;11.40;2.50;;;;;;;24.75;26.95;100961.27;110275;1266;22387;-81
2023/05/31 13:39:14;;;;;;;7.50;2.10;;;;;;;24.79;26.87;100961.14;110135;1263;21989;-79
2023/05/31 13:41:48;;;;;;;6.40;2.50;;;;;;;24.82;26.82;100959.38;109958;1269;21986;-80
2023/05/31 13:44:29;;;;;;;10.70;2.60;;;;;;;24.86;26.94;100953.33;110757;1263;22004;-79
2023/05/31 13:47:03;;;;;;;4.10;2.00;;;;;;;24.89;26.54;100951.83;110637;1256;21996;-80
2023/05/31 13:49:37;;;;;;;2.70;1.80;;;;;;;24.87;26.17;100945.30;111033;1260;22641;-81
2023/05/31 13:52:13;;;;;;;4.10;1.80;;;;;;;24.84;26.22;100938.93;110920;1260;21994;-79
2023/05/31 13:54:46;;;;;;;6.70;2.10;;;;;;;24.81;25.99;100932.64;111132;1256;23023;-79
2023/05/31 13:57:34;;;;;;;4.90;2.40;;;;;;;24.78;26.12;100931.23;111266;1259;23709;-84
2023/05/31 14:00:11;;;;;;;6.40;1.70;;;;;;;24.77;26.44;100926.60;111170;1259;22236;-83
2023/05/31 14:02:58;;;;;;;9.30;2.20;;;;;;;24.76;26.53;100925.19;110973;1259;22417;-79
2023/05/31 14:05:51;;;;;;;7.50;2.10;;;;;;;24.77;26.64;100922.61;111220;1260;22639;-87
2023/05/31 14:08:25;;;;;;;6.10;2.10;;;;;;;24.79;26.73;100920.34;110854;1263;21991;-81
2023/05/31 14:10:56;;;;;;;;;;;;;;;24.82;26.78;100917.41;111276;1265;21964;-82
2023/05/31 14:13:29;;;;;;;8.10;3.70;;;;;;;24.75;26.75;100912.71;110984;1263;22064;-77
2023/05/31 14:16:00;;;;;;;5.60;2.30;;;;;;;24.76;26.43;100912.80;109854;1270;23660;-78
2023/05/31 14:18:32;;;;;;;9.70;2.40;;;;;;;24.78;26.14;100911.69;109897;1267;21881;-82
2023/05/31 14:21:10;;;;;;;15.20;2.80;;;;;;;24.79;25.80;100903.96;109774;1270;23972;-79
2023/05/31 14:23:44;;;;;;;13.00;2.60;;;;;;;24.78;25.61;100901.20;109883;1268;21990;-83
2023/05/31 14:26:57;;;;;;;3.60;1.80;;;;;;;24.77;25.99;100898.25;109833;1265;22141;-79
2023/05/31 14:29:38;;;;;;;3.40;1.90;;;;;;;24.73;25.81;100893.06;110125;1266;24379;-80
2023/05/31 14:32:47;;;;;;;3.40;2.10;;;;;;;24.64;25.85;100888.23;109491;1273;22234;-78
2023/05/31 14:35:36;;;;;;;12.90;2.80;;;;;;;24.59;25.75;100886.88;110444;1267;21963;-78
2023/05/31 14:38:09;;;;;;;6.00;2.10;;;;;;;24.58;25.67;100885.92;110310;1267;22182;-80
2023/05/31 14:41:16;;;;;;;5.10;2.00;;;;;;;24.52;25.60;100883.93;110276;1259;21973;-80
2023/05/31 14:43:53;;;;;;;5.00;2.30;;;;;;;24.47;25.42;100882.41;110276;1267;22752;-82
2023/05/31 14:46:47;;;;;;;15.20;3.70;;;;;;;24.42;25.39;100879.27;110036;1266;22914;-80
2023/05/31 14:49:33;;;;;;;4.40;1.80;;;;;;;24.37;25.36;100877.92;110335;1266;21968;-81
2023/05/31 14:52:09;;;;;;;28.20;4.60;;;;;;;24.33;25.28;100875.97;110244;1257;21990;-79
2023/05/31 14:54:48;;;;;;;;;;;;;;;24.35;25.53;100871.75;110393;1267;22024;-79
2023/05/31 14:57:33;;;;;;;7.50;2.50;;;;;;;24.30;25.62;100870.18;110879;1261;21965;-81